Winchester, VA (22602)

5:24 AM EDT on May 30, 2015 (GMT -0400)
Twin Lakes Overlook | | Change Station
CLOSE
Current Station
Personal Weather Station
Location: Winchester, VA
Elevation: 575 ft
Nearby Weather Stations

Elev 575 ft 39.17 °N, 78.10 °W | Updated 12 minutes ago

Scattered Clouds
Scattered Clouds
65.4 °F
Feels Like 65.4 °F
N
0.0
Wind Variable Wind from WSW
Gusts 1.0 mph

Today
High -- | Low -- °F
--% Chance of Precip.
Yesterday
High -- | Low -- °F
Precip. -- in
5:49 AM 8:31 PM
Waxing Gibbous, 89% visible
Pressure 30.17 in
Visibility 7.0 miles
Clouds Scattered Clouds 11000 ft
Dew Point 65 °F
Humidity 98%
Rainfall 0.00 in
Snow Depth Not available.
UV 0 out of 12
Pollen 6.90 out of 12
Air Quality Not available.
Flu Activity Sporadic
METAR KOKV 300915Z AUTO 22003KT 7SM SCT110 20/19 A3017 RMK AO2

More Conditions Fewer Conditions

Pressure 30.17 in
Visibility 7.0 miles
Clouds Scattered Clouds 11000 ft
Dew Point 65 °F
Humidity 98%
Rainfall 0.00 in
Snow Depth Not available.
UV 0 out of 12
Pollen 6.90 out of 12
Air Quality Not available.
Flu Activity Sporadic
METAR KOKV 300915Z AUTO 22003KT 7SM SCT110 20/19 A3017 RMK AO2

More Conditions Fewer Conditions

10-Day Weather Forecast

Almanac

Astronomy

May. 30, 2015 Rise Set
Actual Time
Civil Twilight
Nautical Twilight
Astronomical Twilight
Moon
Length of Visible Light
Length of Day
Tomorrow will be .
, % of the Moon is Illuminated

Today's Extremes

State Highs State Lows

Community

WunderPhotos

Upload Photos

1,825,475 photos uploaded!

WunderBlogs® & News

Nearby

Air Quality

  Air Quality AQ Index Pollutant
Not available.

Snow Depth

Station Depth Elevation

Earthquake Activity

City Distance Mag. Time & Date
Minimum magnitude displayed is 2.5.

Coastal Water Temperatures

Place Temperature

Stations

Nearby Weather Stations

Station Location Temp. Windchill Dew Point Humidity Wind Precip. Elev Updated Type